createdAt,value
2023-04-01T10:41:29.588Z,1.62
2023-04-01T10:44:40.112Z,1.20
2023-04-01T10:47:18.119Z,1.00
2023-04-01T10:49:52.264Z,0.80
2023-04-01T10:52:45.463Z,0.85
2023-04-01T10:55:37.765Z,0.68
2023-04-01T10:58:40.930Z,1.02
2023-04-01T11:01:46.183Z,0.80
2023-04-01T11:04:37.917Z,1.12
2023-04-01T11:07:11.529Z,1.00
2023-04-01T11:10:16.675Z,0.55
2023-04-01T11:13:01.450Z,0.70
2023-04-01T11:15:45.961Z,0.60
2023-04-01T11:18:21.353Z,0.90
2023-04-01T11:21:07.988Z,0.60
2023-04-01T11:23:55.040Z,0.80
2023-04-01T11:27:00.945Z,0.75
2023-04-01T11:29:49.718Z,0.80
2023-04-01T11:32:39.733Z,0.75
2023-04-01T11:35:41.415Z,0.70
2023-04-01T11:38:16.847Z,0.82
2023-04-01T12:17:32.228Z,0.60
2023-04-01T12:20:29.398Z,0.60
2023-04-01T12:23:22.533Z,0.40
2023-04-01T12:26:08.116Z,0.77
2023-04-01T12:31:48.042Z,0.45
2023-04-01T12:34:27.755Z,0.80
2023-04-01T12:37:21.023Z,0.70
2023-04-01T12:40:07.243Z,0.80
2023-04-01T12:43:04.032Z,0.90
2023-04-01T12:45:37.205Z,0.70
2023-04-01T12:48:20.631Z,0.80
2023-04-01T12:51:04.632Z,0.70
2023-04-01T12:53:40.444Z,0.80
2023-04-01T12:56:54.268Z,0.80
2023-04-01T12:59:24.824Z,0.85
2023-04-01T13:01:52.145Z,0.80
2023-04-01T13:04:40.980Z,0.80
2023-04-01T13:07:17.816Z,0.60
2023-04-01T13:09:50.611Z,0.90
2023-04-01T13:12:35.029Z,0.77
2023-04-01T13:15:14.252Z,0.80
2023-04-01T13:17:54.612Z,0.60
2023-04-01T13:20:24.928Z,0.60
2023-04-01T13:23:24.122Z,0.70
2023-04-01T13:26:14.787Z,0.60
2023-04-01T13:29:01.244Z,0.90
2023-04-01T13:31:37.770Z,0.80
2023-04-01T13:34:23.299Z,0.80
2023-04-01T13:37:29.574Z,0.80
2023-04-01T13:40:23.077Z,1.00
2023-04-01T13:42:51.374Z,0.80
2023-04-01T13:45:22.117Z,1.10
2023-04-01T13:48:08.450Z,1.40
2023-04-01T13:51:06.994Z,1.10
2023-04-01T13:53:57.647Z,0.67
2023-04-01T13:56:40.532Z,0.73
2023-04-01T13:59:35.953Z,1.00
2023-04-01T14:02:28.811Z,1.37
2023-04-01T14:05:47.611Z,0.90
2023-04-01T14:08:41.611Z,0.70
2023-04-01T14:11:45.489Z,0.70
2023-04-01T14:14:24.421Z,0.50
2023-04-01T14:16:51.964Z,0.60
2023-04-01T14:19:46.758Z,0.60
2023-04-01T14:22:33.508Z,0.90
2023-04-01T14:25:22.907Z,2.17
2023-04-01T14:28:09.271Z,1.70
2023-04-01T14:30:38.814Z,0.90
2023-04-01T14:33:36.742Z,0.68
2023-04-01T14:36:34.402Z,0.80
2023-04-01T14:39:31.216Z,0.80
2023-04-01T14:42:26.007Z,0.93
2023-04-01T14:45:18.569Z,6.43
2023-04-01T14:47:59.844Z,2.15
2023-04-01T14:50:32.453Z,1.10
2023-04-01T14:53:08.922Z,1.00
2023-04-01T14:55:42.337Z,1.20
2023-04-01T14:58:15.568Z,1.10
2023-04-01T15:00:58.523Z,1.40
2023-04-01T15:03:40.503Z,1.52
2023-04-01T15:06:39.595Z,1.45
2023-04-01T15:09:23.411Z,1.45
2023-04-01T15:12:10.917Z,1.62
2023-04-01T15:14:44.288Z,1.62
2023-04-01T15:17:47.142Z,1.50
2023-04-01T15:20:35.596Z,1.55
2023-04-01T15:23:26.553Z,1.50
2023-04-01T15:26:12.393Z,1.40
2023-04-01T15:29:00.388Z,1.08
2023-04-01T15:31:38.833Z,0.50
2023-04-01T15:34:37.241Z,0.70
2023-04-01T15:37:10.869Z,0.40
2023-04-01T15:39:45.522Z,0.50
2023-04-01T15:42:24.679Z,0.60
2023-04-01T15:45:16.824Z,0.50
2023-04-01T15:47:53.959Z,0.70
2023-04-01T15:50:55.577Z,0.93
2023-04-01T15:53:38.932Z,0.50
2023-04-01T15:56:27.819Z,0.80
2023-04-01T15:59:13.911Z,0.55
2023-04-01T16:01:44.737Z,0.70
2023-04-01T16:04:33.855Z,0.70
2023-04-01T16:07:10.673Z,0.90
2023-04-01T16:09:49.489Z,0.70
2023-04-01T16:12:20.952Z,0.70
2023-04-01T16:15:06.141Z,0.50
2023-04-01T16:17:47.534Z,0.60
2023-04-01T16:20:23.723Z,0.60
2023-04-01T16:23:11.167Z,0.70
2023-04-01T16:25:51.122Z,0.60
2023-04-01T16:28:25.571Z,0.75
2023-04-01T16:31:04.682Z,0.60
2023-04-01T16:33:59.797Z,0.55
2023-04-01T16:36:34.247Z,0.50
2023-04-01T16:39:27.296Z,0.60
2023-04-01T16:42:07.335Z,0.70
2023-04-01T16:45:00.671Z,0.70
2023-04-01T16:47:33.355Z,0.73
2023-04-01T16:50:08.085Z,0.80
2023-04-01T16:53:01.863Z,1.02
2023-04-01T16:55:42.235Z,0.80
2023-04-01T16:58:19.562Z,0.80
2023-04-01T17:00:54.116Z,1.60
2023-04-01T17:03:32.407Z,2.05
2023-04-01T17:06:12.499Z,1.00
2023-04-01T17:08:52.574Z,0.88
2023-04-01T17:11:30.329Z,0.57
2023-04-01T17:14:16.871Z,0.60
2023-04-01T17:17:12.576Z,0.70
2023-04-01T17:20:17.415Z,1.20
2023-04-01T17:22:54.438Z,0.80
2023-04-01T17:25:52.080Z,1.67
2023-04-01T17:28:32.406Z,3.87
2023-04-01T17:31:47.352Z,3.90
2023-04-01T17:34:35.287Z,2.90
2023-04-01T17:37:10.754Z,4.32
2023-04-01T17:40:06.675Z,3.78
2023-04-01T17:42:48.325Z,3.20
2023-04-01T17:45:38.260Z,6.63
2023-04-01T17:48:21.021Z,6.03
2023-04-01T17:51:09.679Z,8.00
2023-04-01T17:54:03.348Z,11.98
2023-04-01T17:57:04.449Z,15.20
2023-04-01T17:59:37.980Z,14.68
2023-04-01T18:02:25.215Z,11.75
2023-04-01T18:05:13.276Z,12.68
2023-04-01T18:10:12.097Z,9.10
2023-04-01T18:12:52.876Z,6.22
2023-04-01T18:15:56.671Z,5.80
2023-04-01T18:18:51.958Z,6.50
2023-04-01T18:21:47.657Z,8.65
2023-04-01T18:24:38.185Z,6.00
2023-04-01T18:27:18.668Z,2.90
2023-04-01T18:30:04.989Z,2.50
2023-04-01T18:32:49.721Z,2.50
2023-04-01T18:35:24.300Z,2.40
2023-04-01T18:38:02.053Z,3.05
2023-04-01T18:40:36.873Z,4.90
2023-04-01T18:43:28.890Z,4.30
2023-04-01T18:46:10.753Z,4.53
2023-04-01T18:48:55.365Z,5.22
2023-04-01T18:51:58.671Z,5.40
2023-04-01T18:54:38.686Z,5.00
2023-04-01T18:57:25.757Z,5.00
2023-04-01T19:00:19.671Z,5.70
2023-04-01T19:03:04.327Z,6.18
2023-04-01T19:05:39.639Z,7.68
2023-04-01T19:08:32.138Z,20.33
2023-04-01T19:11:27.379Z,21.73
2023-04-01T19:14:22.262Z,15.90
2023-04-01T19:17:08.270Z,8.90
2023-04-01T19:19:56.757Z,8.82
2023-04-01T19:22:52.964Z,6.05
2023-04-01T19:25:28.088Z,3.70
2023-04-01T19:28:22.239Z,4.37
2023-04-01T19:30:55.745Z,5.82
2023-04-01T19:33:34.168Z,8.60
2023-04-01T19:36:09.257Z,8.63
2023-04-01T19:38:52.824Z,6.78
2023-04-01T19:41:31.311Z,6.50
2023-04-01T19:44:24.336Z,6.17
2023-04-01T19:47:03.484Z,6.20
2023-04-01T19:50:03.838Z,6.40
2023-04-01T19:52:35.944Z,7.30
2023-04-01T19:55:26.034Z,7.30
2023-04-01T19:58:08.610Z,6.68
2023-04-01T20:00:41.282Z,6.68
2023-04-01T20:03:34.081Z,6.93
2023-04-01T20:06:14.164Z,7.78
2023-04-01T20:08:47.545Z,7.97
2023-04-01T20:11:16.174Z,9.10
2023-04-01T20:13:49.913Z,8.73
2023-04-01T20:16:18.303Z,8.50
2023-04-01T20:18:57.083Z,8.13
2023-04-01T20:21:44.682Z,7.37
2023-04-01T20:24:16.093Z,7.80
2023-04-01T20:26:49.267Z,6.65
2023-04-01T20:29:39.377Z,6.03
2023-04-01T20:32:18.123Z,5.45
2023-04-01T20:35:14.671Z,5.47
2023-04-01T20:38:10.036Z,4.85
2023-04-01T20:41:09.207Z,4.47
2023-04-01T20:44:12.422Z,4.32
2023-04-01T20:46:56.921Z,4.20
2023-04-01T20:49:52.072Z,4.78
2023-04-01T20:52:31.160Z,4.20
2023-04-01T20:55:14.738Z,4.75
2023-04-01T20:58:14.824Z,5.93
2023-04-01T21:01:10.254Z,6.05
2023-04-01T21:03:57.007Z,7.12
2023-04-01T21:06:44.141Z,7.05
2023-04-01T21:09:34.105Z,6.03
2023-04-01T21:12:15.442Z,6.60
2023-04-01T21:15:08.988Z,6.47
2023-04-01T21:17:50.323Z,5.87
2023-04-01T21:20:27.922Z,5.70
2023-04-01T21:23:01.682Z,5.85
2023-04-01T21:25:59.816Z,5.45
2023-04-01T21:28:36.052Z,5.60
2023-04-01T21:31:09.707Z,6.00
2023-04-01T21:33:55.636Z,6.85
2023-04-01T21:36:36.448Z,6.82
2023-04-01T21:39:29.683Z,6.47
2023-04-01T21:42:20.657Z,5.97
2023-04-01T21:44:48.006Z,6.70
2023-04-01T21:47:40.833Z,6.30
2023-04-01T21:50:30.537Z,6.22
2023-04-01T21:53:24.670Z,5.97
2023-04-01T21:56:13.264Z,6.00
2023-04-01T21:59:08.506Z,6.28
2023-04-01T22:02:30.050Z,5.93
2023-04-01T22:05:06.600Z,6.12
2023-04-01T22:07:53.439Z,5.50
2023-04-01T22:10:39.698Z,5.25
2023-04-01T22:13:09.332Z,5.18
2023-04-01T22:16:14.608Z,5.20
2023-04-01T22:19:06.938Z,4.80
2023-04-01T22:21:53.153Z,4.75
2023-04-01T22:24:35.930Z,4.93
2023-04-01T22:27:29.510Z,4.75
2023-04-01T22:30:09.978Z,4.22
2023-04-01T22:32:45.669Z,4.00
2023-04-01T22:35:28.810Z,4.22
2023-04-01T22:38:05.864Z,4.18
2023-04-01T22:40:39.073Z,3.92
2023-04-01T22:43:15.817Z,3.40
2023-04-01T22:45:55.584Z,4.40
2023-04-01T22:48:42.821Z,5.72
2023-04-01T22:51:23.424Z,6.20
2023-04-01T22:53:58.696Z,5.18
2023-04-01T22:56:40.883Z,4.78
2023-04-01T22:59:12.843Z,4.80
2023-04-01T23:01:46.614Z,3.67
2023-04-01T23:04:20.809Z,5.75
2023-04-01T23:06:55.054Z,5.15
2023-04-01T23:09:31.125Z,4.62
2023-04-01T23:12:05.376Z,3.67
2023-04-01T23:14:38.369Z,2.40
2023-04-01T23:17:11.867Z,2.00
2023-04-01T23:19:54.518Z,1.80
2023-04-01T23:22:27.603Z,1.58
2023-04-01T23:25:16.997Z,1.55
2023-04-01T23:28:00.965Z,1.37
2023-04-01T23:30:40.925Z,1.50
2023-04-01T23:33:18.004Z,1.40
2023-04-01T23:35:56.854Z,1.30
2023-04-01T23:38:26.570Z,1.40
2023-04-01T23:40:55.974Z,1.17
2023-04-01T23:43:28.674Z,1.10
2023-04-01T23:45:57.008Z,1.00
2023-04-01T23:48:37.813Z,1.30
2023-04-01T23:51:15.878Z,1.25
2023-04-01T23:53:47.047Z,1.10
2023-04-01T23:56:18.954Z,1.27
2023-04-01T23:58:53.463Z,1.20
